Time;durP1;ratioP1;P1;durP2;ratioP2;P2;SDS_P1;SDS_P2;PMS_P1;PMS_P2;Temp;Humidity;BMP_temperature;BMP_pressure;BME280_temperature;BME280_humidity;BME280_pressure;Samples;Min_cycle;Max_cycle;Signal;HPM_P1;HPM_P2
2023/11/10 00:09:55;;;;;;;14.90;5.90;;;;;;;7.32;86.24;98338.70;270947;1277;23076;-85
2023/11/10 00:17:50;;;;;;;12.00;6.10;;;;;;;7.32;86.12;98330.84;268514;1295;22469;-85
2023/11/10 01:22:13;;;;;;;6.60;3.70;;;;;;;7.88;88.10;98269.77;272134;1285;23986;-86
2023/11/10 01:29:09;;;;;;;3.80;2.20;;;;;;;8.89;85.73;98259.99;270477;1290;22252;-86
2023/11/10 02:38:08;;;;;;;5.30;2.20;;;;;;;10.63;77.27;98154.39;269986;1287;22421;-83
2023/11/10 02:44:13;;;;;;;3.70;2.10;;;;;;;10.60;76.47;98148.45;270518;1287;22689;-84
2023/11/10 02:50:15;;;;;;;2.90;1.90;;;;;;;10.46;76.44;98152.16;269638;1287;22917;-85
2023/11/10 02:56:17;;;;;;;2.60;1.80;;;;;;;10.23;76.69;98150.23;269049;1285;23218;-85
2023/11/10 03:02:27;;;;;;;4.80;2.80;;;;;;;10.09;76.76;98140.31;268529;1287;22603;-85
2023/11/10 03:08:54;;;;;;;3.50;1.90;;;;;;;10.05;76.31;98136.79;270334;1287;22290;-85
2023/11/10 03:15:18;;;;;;;5.40;1.90;;;;;;;10.04;76.25;98141.63;270643;1288;22193;-88
2023/11/10 03:21:44;;;;;;;6.20;2.40;;;;;;;10.07;75.31;98137.35;270485;1287;22365;-84
2023/11/10 03:28:11;;;;;;;3.70;2.50;;;;;;;10.10;74.92;98126.03;272390;1277;22231;-85
2023/11/10 03:34:44;;;;;;;7.30;2.20;;;;;;;10.12;74.97;98126.10;272249;1277;22549;-86
2023/11/10 03:40:50;;;;;;;3.10;2.30;;;;;;;10.11;75.28;98132.20;272223;1276;22451;-85
2023/11/10 03:46:51;;;;;;;3.00;1.90;;;;;;;10.00;75.38;98125.16;271292;1260;118348;-86
2023/11/10 03:52:54;;;;;;;4.60;2.00;;;;;;;9.90;75.75;98121.02;272108;1275;22407;-85
2023/11/10 03:59:20;;;;;;;5.60;2.50;;;;;;;9.72;76.43;98117.97;272318;1277;22204;-85
2023/11/10 04:05:23;;;;;;;3.70;2.20;;;;;;;9.48;76.87;98110.52;272446;1277;22176;-85
2023/11/10 04:11:46;;;;;;;6.30;2.10;;;;;;;9.34;77.24;98105.90;272473;1276;22280;-85
2023/11/10 04:17:51;;;;;;;4.50;2.30;;;;;;;9.16;77.42;98106.17;270898;1259;26201;-84
2023/11/10 04:24:33;;;;;;;10.40;3.10;;;;;;;8.98;77.41;98102.14;269887;1276;22438;-85
2023/11/10 04:30:56;;;;;;;4.80;2.20;;;;;;;8.76;78.35;98096.77;272077;1275;22210;-85
2023/11/10 04:37:06;;;;;;;6.70;3.10;;;;;;;8.56;78.94;98095.73;272624;1277;22194;-84
2023/11/10 04:43:17;;;;;;;7.20;3.10;;;;;;;8.45;79.61;98095.54;272649;1277;23040;-84
2023/11/10 04:49:46;;;;;;;8.20;3.10;;;;;;;8.32;79.69;98095.77;272215;1275;22236;-85
2023/11/10 04:56:08;;;;;;;6.90;2.30;;;;;;;8.13;80.21;98084.18;272664;1277;22146;-85
2023/11/10 05:03:02;;;;;;;8.20;2.70;;;;;;;7.94;80.74;98080.56;272611;1269;22318;-84
2023/11/10 05:09:07;;;;;;;5.70;2.90;;;;;;;7.74;81.45;98084.30;272055;1276;22244;-85
2023/11/10 05:15:38;;;;;;;5.70;3.20;;;;;;;7.57;82.01;98084.64;272387;1277;22962;-85
2023/11/10 05:22:00;;;;;;;6.20;3.40;;;;;;;7.35;82.38;98085.29;271815;1274;22211;-84
2023/11/10 05:28:29;;;;;;;6.20;3.00;;;;;;;7.15;83.59;98086.27;270684;1276;22239;-85
2023/11/10 05:35:08;;;;;;;6.50;3.30;;;;;;;6.97;84.22;98086.16;272612;1278;22207;-85
2023/11/10 05:41:34;;;;;;;6.30;4.70;;;;;;;6.87;84.90;98087.22;272486;1277;22271;-85
2023/11/10 05:47:36;;;;;;;8.30;4.70;;;;;;;6.67;84.63;98078.73;272332;1276;22318;-84
2023/11/10 05:54:12;;;;;;;9.60;5.80;;;;;;;6.46;85.24;98083.31;272405;1277;22270;-84
2023/11/10 06:00:39;;;;;;;15.20;7.80;;;;;;;6.26;85.95;98085.08;272497;1277;22259;-85
2023/11/10 06:07:03;;;;;;;;;;;;;;;6.17;85.91;98087.83;272468;1270;22405;-84
2023/11/10 06:13:11;;;;;;;12.90;5.00;;;;;;;6.13;86.86;98087.14;272302;1276;23433;-84
2023/11/10 06:19:15;;;;;;;12.10;5.20;;;;;;;6.06;87.77;98087.98;270878;1275;22535;-83
2023/11/10 06:25:20;;;;;;;11.10;5.40;;;;;;;6.07;88.54;98090.55;270576;1277;22556;-84
2023/11/10 06:31:23;;;;;;;9.20;5.10;;;;;;;6.09;88.93;98098.19;270649;1275;22265;-85
2023/11/10 06:38:04;;;;;;;12.10;5.10;;;;;;;6.13;89.61;98098.15;270893;1275;23620;-84
2023/11/10 06:44:34;;;;;;;11.30;4.30;;;;;;;6.16;90.43;98097.52;272445;1276;22358;-84
2023/11/10 06:51:03;;;;;;;10.20;5.70;;;;;;;6.22;90.75;98088.66;272323;1274;22319;-84
2023/11/10 06:57:05;;;;;;;15.10;6.90;;;;;;;6.25;90.83;98088.14;272311;1276;22203;-84
2023/11/10 07:03:12;;;;;;;14.60;6.60;;;;;;;6.38;92.13;98094.08;272298;1276;22261;-85
2023/11/10 07:09:34;;;;;;;;;;;;;;;6.57;93.04;98091.29;272533;1276;22491;-85
2023/11/10 07:16:38;;;;;;;9.30;5.90;;;;;;;6.74;93.48;98090.94;272667;1278;22237;-85
2023/11/10 07:22:41;;;;;;;18.20;12.30;;;;;;;6.89;93.85;98090.65;272671;1280;22197;-84
2023/11/10 07:28:43;;;;;;;21.00;14.70;;;;;;;7.03;93.47;98094.55;270288;1277;22585;-84
2023/11/10 07:34:45;;;;;;;9.80;5.70;;;;;;;7.16;93.36;98088.77;270302;1276;22421;-84
2023/11/10 07:41:27;;;;;;;10.00;5.20;;;;;;;7.28;93.41;98088.50;271337;1275;22215;-84
2023/11/10 07:47:29;;;;;;;8.10;5.20;;;;;;;7.44;93.83;98083.66;271876;1276;24026;-85
2023/11/10 07:54:17;;;;;;;18.30;10.40;;;;;;;7.59;93.81;98083.71;272615;1277;22952;-84
2023/11/10 08:00:37;;;;;;;18.80;9.20;;;;;;;7.81;93.67;98081.86;272581;1277;22207;-84
2023/11/10 08:07:00;;;;;;;12.20;6.30;;;;;;;8.00;93.77;98083.63;272368;1276;23302;-84
2023/11/10 08:13:02;;;;;;;11.50;6.90;;;;;;;8.17;94.00;98084.21;271109;1276;22557;-84
2023/11/10 08:19:04;;;;;;;14.80;7.20;;;;;;;8.36;94.28;98084.98;272499;1276;22276;-85
2023/11/10 08:25:11;;;;;;;13.50;6.70;;;;;;;8.46;94.12;98090.31;272475;1276;22196;-85
2023/11/10 08:31:46;;;;;;;10.50;6.70;;;;;;;8.52;94.12;98093.30;272405;1276;23111;-84
2023/11/10 08:38:51;;;;;;;18.10;7.80;;;;;;;8.59;93.92;98099.58;272180;1267;22905;-85
2023/11/10 08:45:24;;;;;;;18.50;7.80;;;;;;;8.66;94.26;98097.90;272460;1276;23097;-84
2023/11/10 08:51:29;;;;;;;19.90;7.40;;;;;;;8.81;94.46;98098.04;271763;1276;22264;-84
2023/11/10 08:57:32;;;;;;;21.50;8.30;;;;;;;9.04;94.77;98094.37;271154;1276;22327;-85
2023/11/10 09:03:46;;;;;;;17.10;8.10;;;;;;;9.34;94.75;98096.85;272517;1277;22276;-85
2023/11/10 09:10:11;;;;;;;16.20;7.40;;;;;;;9.85;94.81;98104.54;272222;1277;22894;-85
2023/11/10 09:16:33;;;;;;;16.70;7.60;;;;;;;10.56;94.48;98098.48;270724;1276;22312;-85
2023/11/10 09:23:05;;;;;;;17.30;7.50;;;;;;;11.54;93.98;98089.45;271255;1275;23315;-85
2023/11/10 09:29:07;;;;;;;20.90;6.60;;;;;;;12.64;92.81;98080.11;271714;1277;22582;-84
2023/11/10 09:35:14;;;;;;;12.80;6.10;;;;;;;13.52;90.58;98073.57;269977;1276;22280;-85
2023/11/10 09:41:38;;;;;;;17.20;6.40;;;;;;;14.15;88.57;98071.98;269781;1275;22307;-85
2023/11/10 09:48:40;;;;;;;14.70;5.60;;;;;;;14.36;86.65;98067.77;271221;1273;23479;-85
2023/11/10 09:55:27;;;;;;;11.80;5.90;;;;;;;14.27;85.24;98061.48;272546;1264;22301;-85
2023/11/10 10:01:49;;;;;;;14.00;5.30;;;;;;;14.10;84.07;98057.91;272271;1276;23334;-85
2023/11/10 10:08:15;;;;;;;11.90;4.90;;;;;;;14.02;84.21;98054.74;272093;1276;22252;-85
2023/11/10 10:14:17;;;;;;;12.90;4.60;;;;;;;13.86;82.76;98047.16;272309;1271;22899;-86
2023/11/10 10:21:01;;;;;;;8.80;4.30;;;;;;;13.79;81.99;98046.95;272312;1276;22229;-85
2023/11/10 10:27:31;;;;;;;29.10;8.30;;;;;;;13.69;80.43;98041.48;272300;1276;22370;-85
2023/11/10 10:33:53;;;;;;;13.40;5.30;;;;;;;13.61;80.21;98029.35;272069;1276;22380;-86
2023/11/10 10:40:00;;;;;;;12.20;5.00;;;;;;;13.54;79.58;98017.91;272484;1278;22253;-85
2023/11/10 10:46:14;;;;;;;13.10;5.70;;;;;;;13.51;79.34;98009.88;272266;1276;22309;-86
2023/11/10 10:52:35;;;;;;;18.60;6.70;;;;;;;13.50;79.21;98008.95;271926;1276;23506;-86
2023/11/10 10:58:38;;;;;;;14.90;6.30;;;;;;;13.39;78.85;98005.81;272273;1273;23400;-86
2023/11/10 11:05:31;;;;;;;13.40;6.00;;;;;;;13.25;79.16;98002.36;270105;1270;23357;-85
2023/11/10 11:12:15;;;;;;;16.70;6.40;;;;;;;13.03;78.91;98000.63;271250;1276;22354;-87
2023/11/10 11:18:29;;;;;;;4.00;2.60;;;;;;;12.64;78.86;97999.17;271648;1276;22192;-86
2023/11/10 11:24:32;;;;;;;3.40;2.10;;;;;;;12.26;79.22;97994.39;271352;1276;22435;-89
2023/11/10 11:30:35;;;;;;;4.30;2.10;;;;;;;11.96;79.54;97992.06;271031;1276;22438;-86
2023/11/10 11:37:17;;;;;;;3.40;1.80;;;;;;;11.74;79.51;97991.35;271650;1271;23926;-86
2023/11/10 11:43:50;;;;;;;3.10;1.90;;;;;;;11.57;80.03;97990.63;269547;1276;25490;-86
2023/11/10 11:49:56;;;;;;;4.90;2.90;;;;;;;11.44;80.07;97990.97;272020;1275;22435;-85
2023/11/10 11:56:19;;;;;;;4.90;2.80;;;;;;;11.35;80.37;97987.98;272265;1277;22336;-85
2023/11/10 12:02:46;;;;;;;4.10;2.60;;;;;;;11.31;81.02;97981.36;271797;1276;22251;-85
2023/11/10 12:08:49;;;;;;;4.40;2.70;;;;;;;11.30;82.34;97981.30;270818;1275;22993;-85
2023/11/10 12:15:32;;;;;;;7.50;3.00;;;;;;;11.27;82.58;97975.91;272513;1277;22350;-85
2023/11/10 12:21:34;;;;;;;9.80;5.00;;;;;;;11.17;82.71;97968.32;272259;1276;22195;-85
2023/11/10 12:27:36;;;;;;;11.50;5.40;;;;;;;11.09;82.35;97963.36;272609;1280;22303;-85
2023/11/10 12:34:00;;;;;;;8.10;4.60;;;;;;;11.05;82.34;97960.43;272532;1280;22556;-85
2023/11/10 12:40:31;;;;;;;11.80;5.70;;;;;;;10.93;82.79;97951.83;272407;1277;22558;-84
2023/11/10 12:46:35;;;;;;;9.50;4.60;;;;;;;10.82;83.40;97944.23;271088;1276;1429569;-85
2023/11/10 12:53:23;;;;;;;11.80;4.50;;;;;;;10.75;84.38;97935.77;272200;1276;22471;-85
2023/11/10 13:00:11;;;;;;;12.10;5.20;;;;;;;10.62;84.91;97925.36;271528;1276;22277;-85
2023/11/10 13:06:53;;;;;;;15.70;7.70;;;;;;;10.46;85.55;97914.28;272310;1277;22391;-85
2023/11/10 13:13:39;;;;;;;15.60;7.20;;;;;;;10.41;86.04;97906.71;270730;1276;25220;-85
2023/11/10 13:20:23;;;;;;;16.60;7.20;;;;;;;10.42;87.04;97912.98;270887;1276;23610;-86
2023/11/10 13:26:31;;;;;;;15.50;8.00;;;;;;;10.42;87.72;97913.60;272317;1277;22404;-84
2023/11/10 13:33:29;;;;;;;24.70;10.60;;;;;;;10.35;88.43;97903.87;269936;1267;23200;-85
2023/11/10 13:39:31;;;;;;;31.00;13.20;;;;;;;10.23;89.33;97902.14;270827;1276;22555;-85
2023/11/10 13:45:38;;;;;;;16.50;8.50;;;;;;;10.14;90.46;97903.73;271198;1277;22260;-85
2023/11/10 13:52:14;;;;;;;;;;;;;;;10.11;91.05;97892.48;272499;1282;22429;-85
2023/11/10 13:58:17;;;;;;;9.90;6.60;;;;;;;10.01;91.49;97885.96;272560;1268;22270;-86
2023/11/10 14:04:37;;;;;;;12.10;6.00;;;;;;;9.91;92.17;97887.16;272511;1277;22295;-85
2023/11/10 14:11:45;;;;;;;14.20;5.90;;;;;;;9.79;93.02;97885.73;272613;1277;22283;-85
2023/11/10 14:18:17;;;;;;;10.30;5.60;;;;;;;9.69;94.43;97884.59;272377;1277;22594;-85
2023/11/10 14:25:14;;;;;;;16.40;7.40;;;;;;;9.63;95.08;97883.35;272373;1276;22219;-85
2023/11/10 14:39:38;;;;;;;10.10;5.70;;;;;;;9.43;96.70;97877.70;272338;1283;22224;-85
2023/11/10 15:00:01;;;;;;;13.60;7.20;;;;;;;9.17;98.97;97880.09;272514;1277;22385;-85
2023/11/10 15:06:26;;;;;;;20.40;12.80;;;;;;;9.09;98.90;97878.16;272141;1283;23154;-85
2023/11/10 15:12:52;;;;;;;22.00;13.60;;;;;;;9.02;98.73;97876.69;272400;1277;22216;-85
2023/11/10 15:19:19;;;;;;;20.00;12.60;;;;;;;8.96;99.71;97869.89;272597;1277;22700;-85
2023/11/10 15:32:08;;;;;;;17.70;10.30;;;;;;;8.90;99.96;97868.27;271804;1275;22579;-85
2023/11/10 15:39:00;;;;;;;16.40;9.60;;;;;;;8.89;100.00;97865.23;270723;1276;22391;-85
2023/11/10 15:45:53;;;;;;;17.00;10.20;;;;;;;8.88;100.00;97866.33;272066;1276;22209;-85
2023/11/10 15:52:20;;;;;;;21.80;10.70;;;;;;;8.86;100.00;97866.23;271400;1277;23459;-86
2023/11/10 15:58:48;;;;;;;22.20;12.80;;;;;;;8.81;100.00;97868.42;271746;1277;22708;-85
2023/11/10 16:13:32;;;;;;;23.50;15.30;;;;;;;8.73;100.00;97884.25;272370;1277;22213;-86
2023/11/10 16:20:26;;;;;;;31.00;16.90;;;;;;;8.77;100.00;97884.48;272014;1275;22244;-85
2023/11/10 16:27:18;;;;;;;18.20;13.00;;;;;;;8.72;100.00;97876.13;272492;1277;22212;-85
2023/11/10 16:34:10;;;;;;;20.80;14.00;;;;;;;8.61;100.00;97869.82;272568;1278;23181;-86
2023/11/10 16:49:04;;;;;;;22.80;15.90;;;;;;;8.58;100.00;97863.34;272544;1276;23276;-85
2023/11/10 16:55:32;;;;;;;25.40;18.30;;;;;;;8.61;100.00;97865.45;272372;1278;22405;-85
2023/11/10 17:01:35;;;;;;;43.10;24.40;;;;;;;8.64;100.00;97859.45;272280;1278;22206;-85
2023/11/10 17:08:58;;;;;;;34.40;22.70;;;;;;;8.61;100.00;97851.11;272012;1276;22260;-85
2023/11/10 17:15:26;;;;;;;36.20;21.80;;;;;;;8.51;100.00;97851.58;270762;1276;22591;-86
2023/11/10 17:29:43;;;;;;;33.40;20.00;;;;;;;8.48;100.00;97857.02;272353;1277;22190;-86
2023/11/10 17:36:10;;;;;;;45.10;21.90;;;;;;;8.50;100.00;97855.47;270724;1278;23959;-85
2023/11/10 17:49:25;;;;;;;47.80;21.70;;;;;;;8.47;100.00;97847.42;262596;1277;10002915;-86
2023/11/10 17:55:53;;;;;;;33.50;20.20;;;;;;;8.47;100.00;97841.58;271144;1277;23391;-86
2023/11/10 18:02:32;;;;;;;33.50;19.40;;;;;;;8.48;100.00;97837.39;272154;1274;22547;-86
2023/11/10 18:08:34;;;;;;;35.50;19.10;;;;;;;8.42;100.00;97830.52;271090;1276;24117;-85
2023/11/10 18:14:58;;;;;;;30.70;17.90;;;;;;;8.38;100.00;97832.93;270855;1274;22343;-84
2023/11/10 18:21:52;;;;;;;30.90;20.20;;;;;;;8.37;100.00;97839.86;270870;1276;23634;-85
2023/11/10 18:36:17;;;;;;;41.70;25.20;;;;;;;8.42;100.00;97847.27;272448;1276;22322;-84
2023/11/10 18:42:20;;;;;;;40.90;20.80;;;;;;;8.37;100.00;97846.80;271531;1278;22275;-85
2023/11/10 18:48:44;;;;;;;45.10;28.20;;;;;;;8.34;100.00;97846.73;271799;1264;23955;-85
2023/11/10 18:54:46;;;;;;;41.50;26.30;;;;;;;8.35;100.00;97843.38;270764;1275;22540;-87
2023/11/10 19:00:49;;;;;;;67.90;42.20;;;;;;;8.37;100.00;97837.14;271627;1275;22389;-87
2023/11/10 19:07:41;;;;;;;66.60;46.30;;;;;;;8.36;100.00;97831.14;271546;1278;23427;-86
2023/11/10 19:13:46;;;;;;;60.70;41.50;;;;;;;8.32;100.00;97828.71;272265;1275;22397;-87
2023/11/10 19:20:07;;;;;;;58.20;39.10;;;;;;;8.22;100.00;97829.15;272366;1278;23046;-86
2023/11/10 19:26:09;;;;;;;69.30;44.30;;;;;;;8.20;100.00;97822.91;272023;1276;22312;-86
2023/11/10 19:32:11;;;;;;;62.90;41.20;;;;;;;8.21;100.00;97828.05;271604;1276;22209;-86
2023/11/10 19:38:15;;;;;;;59.60;39.00;;;;;;;8.25;100.00;97830.73;271868;1276;22242;-86
2023/11/10 19:52:31;;;;;;;66.90;40.10;;;;;;;8.30;100.00;97822.80;272357;1277;22357;-86
2023/11/10 20:06:52;;;;;;;47.70;28.50;;;;;;;8.20;100.00;97822.52;271353;1278;24368;-86
2023/11/10 20:12:54;;;;;;;45.40;26.20;;;;;;;8.19;100.00;97822.67;270800;1277;22453;-85
2023/11/10 20:18:58;;;;;;;41.50;26.80;;;;;;;8.15;100.00;97825.16;271176;1278;23805;-87
2023/11/10 20:25:15;;;;;;;43.60;25.60;;;;;;;8.13;100.00;97819.85;271073;1278;22256;-86
2023/11/10 20:31:19;;;;;;;38.00;22.90;;;;;;;8.10;100.00;97818.29;272014;1279;22919;-85
2023/11/10 20:37:29;;;;;;;37.90;23.10;;;;;;;8.08;100.00;97815.33;271165;1276;22203;-85
2023/11/10 20:51:32;;;;;;;40.50;25.40;;;;;;;7.99;100.00;97810.48;271066;1276;23669;-86
2023/11/10 21:12:23;;;;;;;31.40;22.50;;;;;;;7.89;100.00;97791.77;271948;1280;22192;-85
2023/11/10 21:18:25;;;;;;;38.10;22.60;;;;;;;7.91;100.00;97791.00;271247;1276;23427;-85
2023/11/10 21:24:29;;;;;;;42.10;26.90;;;;;;;7.93;100.00;97783.52;270628;1275;23836;-85
2023/11/10 21:30:31;;;;;;;35.60;24.30;;;;;;;7.89;100.00;97776.83;270901;1276;22416;-87
2023/11/10 21:36:33;;;;;;;41.90;25.00;;;;;;;7.86;100.00;97768.49;271841;1276;22428;-88
2023/11/10 21:42:35;;;;;;;39.00;23.80;;;;;;;7.80;100.00;97767.54;271783;1275;22574;-86
2023/11/10 21:48:37;;;;;;;44.30;27.30;;;;;;;7.77;100.00;97759.43;271905;1275;22348;-87
2023/11/10 21:54:40;;;;;;;43.60;27.00;;;;;;;7.70;100.00;97752.57;271744;1276;22371;-90
2023/11/10 22:00:42;;;;;;;40.80;24.00;;;;;;;7.63;100.00;97738.30;271796;1275;22378;-86
2023/11/10 22:06:47;;;;;;;41.60;23.50;;;;;;;7.59;100.00;97731.91;271840;1276;22347;-86
2023/11/10 22:12:49;;;;;;;35.60;21.00;;;;;;;7.55;100.00;97727.31;271672;1275;22397;-86
2023/11/10 22:18:51;;;;;;;44.00;23.60;;;;;;;7.56;100.00;97728.48;271718;1275;22222;-88
2023/11/10 22:24:54;;;;;;;37.70;23.50;;;;;;;7.56;100.00;97727.95;271024;1275;23305;-86
2023/11/10 22:30:56;;;;;;;38.00;23.20;;;;;;;7.52;100.00;97722.17;270796;1275;22434;-86
2023/11/10 22:37:01;;;;;;;37.80;22.60;;;;;;;7.50;100.00;97724.03;272012;1276;22397;-87
2023/11/10 22:43:28;;;;;;;46.50;24.80;;;;;;;7.48;100.00;97723.87;270596;1277;22251;-86
2023/11/10 22:49:51;;;;;;;38.50;24.10;;;;;;;7.46;100.00;97721.77;272732;1264;23056;-86
2023/11/10 22:55:53;;;;;;;38.90;22.70;;;;;;;7.44;100.00;97721.05;271862;1275;22461;-86
2023/11/10 23:01:55;;;;;;;39.00;22.50;;;;;;;7.44;100.00;97711.02;270612;1277;23635;-86
2023/11/10 23:07:57;;;;;;;35.50;24.70;;;;;;;7.45;100.00;97704.65;271213;1274;22322;-86
2023/11/10 23:14:00;;;;;;;38.80;24.20;;;;;;;7.46;100.00;97701.48;271594;1276;22643;-86
2023/11/10 23:20:02;;;;;;;49.10;29.40;;;;;;;7.47;100.00;97695.80;271995;1274;23686;-87
2023/11/10 23:33:09;;;;;;;42.80;26.60;;;;;;;7.40;100.00;97681.30;272730;1281;22251;-86
2023/11/10 23:39:11;;;;;;;39.00;26.90;;;;;;;7.39;100.00;97673.05;270792;1274;22599;-86
2023/11/10 23:45:13;;;;;;;51.20;27.40;;;;;;;7.36;100.00;97661.92;270474;1274;23043;-85
2023/11/10 23:51:41;;;;;;;38.70;24.80;;;;;;;7.35;100.00;97661.06;271232;1274;22309;-85
2023/11/10 23:58:23;;;;;;;44.30;26.30;;;;;;;7.38;100.00;97663.94;272650;1278;22210;-86
